sensor_id;sensor_type;location;lat;lon;timestamp;pressure;altitude;pressure_sealevel;temperature;humidity
45763;BME280;37512;52.408;13.356;2023-07-20T00:00:18;100558.50;;;17.04;100.00
45763;BME280;37512;52.408;13.356;2023-07-20T00:04:19;100550.03;;;17.11;100.00
45763;BME280;37512;52.408;13.356;2023-07-20T00:08:21;100549.94;;;17.18;100.00
45763;BME280;37512;52.408;13.356;2023-07-20T00:12:23;100552.00;;;17.14;100.00
45763;BME280;37512;52.408;13.356;2023-07-20T00:16:28;100552.69;;;16.73;100.00
45763;BME280;37512;52.408;13.356;2023-07-20T00:20:36;100561.78;;;16.28;100.00
45763;BME280;37512;52.408;13.356;2023-07-20T00:24:41;100560.03;;;16.52;100.00
45763;BME280;37512;52.408;13.356;2023-07-20T00:28:43;100558.16;;;16.31;100.00
45763;BME280;37512;52.408;13.356;2023-07-20T00:32:44;100554.75;;;16.62;100.00
45763;BME280;37512;52.408;13.356;2023-07-20T00:36:46;100557.00;;;16.22;100.00
45763;BME280;37512;52.408;13.356;2023-07-20T00:40:48;100550.31;;;16.01;100.00
45763;BME280;37512;52.408;13.356;2023-07-20T00:44:50;100557.34;;;16.31;100.00
45763;BME280;37512;52.408;13.356;2023-07-20T00:48:52;100567.25;;;16.46;100.00
45763;BME280;37512;52.408;13.356;2023-07-20T00:52:55;100560.38;;;16.62;100.00
45763;BME280;37512;52.408;13.356;2023-07-20T00:56:57;100550.31;;;16.68;100.00
45763;BME280;37512;52.408;13.356;2023-07-20T01:01:00;100557.63;;;16.55;100.00
45763;BME280;37512;52.408;13.356;2023-07-20T01:05:02;100552.72;;;16.69;100.00
45763;BME280;37512;52.408;13.356;2023-07-20T01:09:16;100564.09;;;16.41;100.00
45763;BME280;37512;52.408;13.356;2023-07-20T01:13:20;100561.03;;;16.14;100.00
45763;BME280;37512;52.408;13.356;2023-07-20T01:17:22;100568.41;;;15.72;100.00
45763;BME280;37512;52.408;13.356;2023-07-20T01:21:37;100567.88;;;16.02;100.00
45763;BME280;37512;52.408;13.356;2023-07-20T01:30:08;100561.81;;;16.14;100.00
45763;BME280;37512;52.408;13.356;2023-07-20T01:34:17;100563.75;;;16.28;100.00
45763;BME280;37512;52.408;13.356;2023-07-20T01:38:19;100561.00;;;16.24;100.00
45763;BME280;37512;52.408;13.356;2023-07-20T01:42:24;100561.81;;;16.18;100.00
45763;BME280;37512;52.408;13.356;2023-07-20T01:46:26;100561.88;;;16.07;100.00
45763;BME280;37512;52.408;13.356;2023-07-20T01:50:28;100558.16;;;16.28;100.00
45763;BME280;37512;52.408;13.356;2023-07-20T01:54:30;100553.78;;;16.23;100.00
45763;BME280;37512;52.408;13.356;2023-07-20T01:58:32;100552.25;;;16.12;100.00
45763;BME280;37512;52.408;13.356;2023-07-20T02:02:33;100553.78;;;16.23;100.00
45763;BME280;37512;52.408;13.356;2023-07-20T02:06:35;100547.81;;;16.14;100.00
45763;BME280;37512;52.408;13.356;2023-07-20T02:10:37;100541.84;;;16.16;100.00
45763;BME280;37512;52.408;13.356;2023-07-20T02:14:41;100553.47;;;16.10;100.00
45763;BME280;37512;52.408;13.356;2023-07-20T02:18:43;100552.63;;;16.14;100.00
45763;BME280;37512;52.408;13.356;2023-07-20T02:22:45;100545.97;;;15.82;100.00
45763;BME280;37512;52.408;13.356;2023-07-20T02:26:46;100546.06;;;15.46;100.00
45763;BME280;37512;52.408;13.356;2023-07-20T02:30:48;100544.41;;;15.63;100.00
45763;BME280;37512;52.408;13.356;2023-07-20T02:34:50;100556.38;;;15.75;100.00
45763;BME280;37512;52.408;13.356;2023-07-20T02:38:52;100555.56;;;15.78;100.00
45763;BME280;37512;52.408;13.356;2023-07-20T02:42:54;100552.03;;;15.56;100.00
45763;BME280;37512;52.408;13.356;2023-07-20T02:46:55;100564.81;;;15.53;100.00
45763;BME280;37512;52.408;13.356;2023-07-20T02:50:57;100559.56;;;15.80;100.00
45763;BME280;37512;52.408;13.356;2023-07-20T02:54:58;100559.47;;;16.05;100.00
45763;BME280;37512;52.408;13.356;2023-07-20T02:59:01;100560.72;;;15.97;100.00
45763;BME280;37512;52.408;13.356;2023-07-20T03:03:03;100567.13;;;15.87;100.00
45763;BME280;37512;52.408;13.356;2023-07-20T03:07:05;100574.75;;;15.83;100.00
45763;BME280;37512;52.408;13.356;2023-07-20T03:11:07;100581.13;;;15.87;100.00
45763;BME280;37512;52.408;13.356;2023-07-20T03:15:09;100590.78;;;15.43;100.00
45763;BME280;37512;52.408;13.356;2023-07-20T03:19:11;100587.97;;;15.50;100.00
45763;BME280;37512;52.408;13.356;2023-07-20T03:23:13;100588.38;;;15.52;100.00
45763;BME280;37512;52.408;13.356;2023-07-20T03:27:14;100587.56;;;15.73;100.00
45763;BME280;37512;52.408;13.356;2023-07-20T03:31:16;100595.16;;;15.73;100.00
45763;BME280;37512;52.408;13.356;2023-07-20T03:35:17;100593.97;;;15.48;100.00
45763;BME280;37512;52.408;13.356;2023-07-20T03:39:19;100596.78;;;15.56;100.00
45763;BME280;37512;52.408;13.356;2023-07-20T03:43:21;100589.94;;;15.85;100.00
45763;BME280;37512;52.408;13.356;2023-07-20T03:47:23;100587.50;;;15.91;100.00
45763;BME280;37512;52.408;13.356;2023-07-20T03:51:26;100591.47;;;16.01;100.00
45763;BME280;37512;52.408;13.356;2023-07-20T03:55:27;100597.53;;;15.85;100.00
45763;BME280;37512;52.408;13.356;2023-07-20T03:59:29;100601.53;;;15.80;100.00
45763;BME280;37512;52.408;13.356;2023-07-20T04:03:31;100606.34;;;15.58;100.00
45763;BME280;37512;52.408;13.356;2023-07-20T04:07:33;100605.53;;;15.68;100.00
45763;BME280;37512;52.408;13.356;2023-07-20T04:11:34;100601.41;;;16.20;100.00
45763;BME280;37512;52.408;13.356;2023-07-20T04:15:36;100609.47;;;16.03;100.00
45763;BME280;37512;52.408;13.356;2023-07-20T04:19:38;100606.63;;;16.18;100.00
45763;BME280;37512;52.408;13.356;2023-07-20T04:23:39;100606.69;;;16.03;100.00
45763;BME280;37512;52.408;13.356;2023-07-20T04:27:41;100610.56;;;16.31;100.00
45763;BME280;37512;52.408;13.356;2023-07-20T04:31:43;100617.13;;;15.92;100.00
45763;BME280;37512;52.408;13.356;2023-07-20T04:39:50;100620.31;;;15.87;100.00
45763;BME280;37512;52.408;13.356;2023-07-20T04:43:52;100608.28;;;15.94;100.00
45763;BME280;37512;52.408;13.356;2023-07-20T04:47:53;100613.94;;;15.76;100.00
45763;BME280;37512;52.408;13.356;2023-07-20T04:51:55;100612.69;;;15.91;100.00
45763;BME280;37512;52.408;13.356;2023-07-20T04:55:57;100610.28;;;16.00;100.00
45763;BME280;37512;52.408;13.356;2023-07-20T04:59:59;100603.53;;;15.83;100.00
45763;BME280;37512;52.408;13.356;2023-07-20T05:04:01;100614.69;;;15.87;100.00
45763;BME280;37512;52.408;13.356;2023-07-20T05:08:04;100611.06;;;16.01;100.00
45763;BME280;37512;52.408;13.356;2023-07-20T05:12:05;100618.28;;;16.02;100.00
45763;BME280;37512;52.408;13.356;2023-07-20T05:16:07;100615.81;;;16.15;100.00
45763;BME280;37512;52.408;13.356;2023-07-20T05:20:10;100614.94;;;16.32;100.00
45763;BME280;37512;52.408;13.356;2023-07-20T05:24:11;100621.03;;;16.20;100.00
45763;BME280;37512;52.408;13.356;2023-07-20T05:28:13;100620.69;;;15.93;100.00
45763;BME280;37512;52.408;13.356;2023-07-20T05:32:14;100634.19;;;16.26;100.00
45763;BME280;37512;52.408;13.356;2023-07-20T05:36:16;100626.63;;;16.16;100.00
45763;BME280;37512;52.408;13.356;2023-07-20T05:40:18;100615.81;;;16.22;100.00
45763;BME280;37512;52.408;13.356;2023-07-20T05:44:21;100629.50;;;15.95;100.00
45763;BME280;37512;52.408;13.356;2023-07-20T05:48:23;100632.22;;;16.20;100.00
45763;BME280;37512;52.408;13.356;2023-07-20T05:52:25;100643.03;;;16.14;100.00
45763;BME280;37512;52.408;13.356;2023-07-20T05:56:26;100648.13;;;16.37;100.00
45763;BME280;37512;52.408;13.356;2023-07-20T06:00:28;100640.72;;;15.84;100.00
45763;BME280;37512;52.408;13.356;2023-07-20T06:04:30;100643.44;;;16.13;100.00
45763;BME280;37512;52.408;13.356;2023-07-20T06:08:31;100644.16;;;16.35;100.00
45763;BME280;37512;52.408;13.356;2023-07-20T06:12:33;100639.22;;;16.64;100.00
45763;BME280;37512;52.408;13.356;2023-07-20T06:16:35;100642.75;;;16.75;100.00
45763;BME280;37512;52.408;13.356;2023-07-20T06:20:37;100640.50;;;17.15;100.00
45763;BME280;37512;52.408;13.356;2023-07-20T06:24:38;100647.59;;;17.30;100.00
45763;BME280;37512;52.408;13.356;2023-07-20T06:28:40;100648.56;;;17.06;100.00
45763;BME280;37512;52.408;13.356;2023-07-20T06:32:41;100650.41;;;16.64;100.00
45763;BME280;37512;52.408;13.356;2023-07-20T06:36:43;100649.13;;;16.86;100.00
45763;BME280;37512;52.408;13.356;2023-07-20T06:40:48;100649.28;;;16.50;100.00
45763;BME280;37512;52.408;13.356;2023-07-20T06:44:49;100661.75;;;16.35;100.00
45763;BME280;37512;52.408;13.356;2023-07-20T06:48:51;100654.00;;;16.68;100.00
45763;BME280;37512;52.408;13.356;2023-07-20T06:52:56;100662.34;;;16.82;100.00
45763;BME280;37512;52.408;13.356;2023-07-20T06:56:59;100668.19;;;17.13;100.00
45763;BME280;37512;52.408;13.356;2023-07-20T07:01:18;100656.78;;;17.34;100.00
45763;BME280;37512;52.408;13.356;2023-07-20T07:05:23;100671.72;;;17.24;100.00
45763;BME280;37512;52.408;13.356;2023-07-20T07:09:24;100669.81;;;17.59;100.00
45763;BME280;37512;52.408;13.356;2023-07-20T07:13:26;100668.19;;;17.62;100.00
45763;BME280;37512;52.408;13.356;2023-07-20T07:17:27;100676.09;;;17.74;100.00
45763;BME280;37512;52.408;13.356;2023-07-20T07:21:29;100667.50;;;18.30;100.00
45763;BME280;37512;52.408;13.356;2023-07-20T07:25:33;100670.63;;;18.39;100.00
45763;BME280;37512;52.408;13.356;2023-07-20T07:29:35;100680.22;;;18.04;100.00
45763;BME280;37512;52.408;13.356;2023-07-20T07:33:36;100682.03;;;17.83;100.00
45763;BME280;37512;52.408;13.356;2023-07-20T07:37:38;100673.75;;;18.45;100.00
45763;BME280;37512;52.408;13.356;2023-07-20T07:42:00;100673.91;;;18.65;100.00
45763;BME280;37512;52.408;13.356;2023-07-20T07:46:01;100674.19;;;18.05;100.00
45763;BME280;37512;52.408;13.356;2023-07-20T07:50:03;100676.31;;;18.63;100.00
45763;BME280;37512;52.408;13.356;2023-07-20T07:54:05;100680.59;;;18.74;100.00
45763;BME280;37512;52.408;13.356;2023-07-20T07:58:06;100688.78;;;17.93;100.00
45763;BME280;37512;52.408;13.356;2023-07-20T08:02:08;100680.31;;;18.34;100.00
45763;BME280;37512;52.408;13.356;2023-07-20T08:06:09;100684.25;;;18.41;100.00
45763;BME280;37512;52.408;13.356;2023-07-20T08:10:11;100680.69;;;18.67;100.00
45763;BME280;37512;52.408;13.356;2023-07-20T08:14:13;100691.41;;;18.45;100.00
45763;BME280;37512;52.408;13.356;2023-07-20T08:18:15;100686.38;;;18.29;100.00
45763;BME280;37512;52.408;13.356;2023-07-20T08:22:17;100700.47;;;18.26;100.00
45763;BME280;37512;52.408;13.356;2023-07-20T08:26:18;100707.19;;;17.97;100.00
45763;BME280;37512;52.408;13.356;2023-07-20T08:30:24;100709.47;;;18.44;100.00
45763;BME280;37512;52.408;13.356;2023-07-20T08:34:25;100704.91;;;19.19;100.00
45763;BME280;37512;52.408;13.356;2023-07-20T08:38:32;100708.84;;;19.25;100.00
45763;BME280;37512;52.408;13.356;2023-07-20T08:42:34;100716.72;;;18.45;100.00
45763;BME280;37512;52.408;13.356;2023-07-20T08:46:38;100707.06;;;18.80;100.00
45763;BME280;37512;52.408;13.356;2023-07-20T08:50:40;100710.91;;;18.94;100.00
45763;BME280;37512;52.408;13.356;2023-07-20T08:54:42;100710.72;;;18.77;100.00
45763;BME280;37512;52.408;13.356;2023-07-20T08:58:44;100707.25;;;19.24;100.00
45763;BME280;37512;52.408;13.356;2023-07-20T09:02:49;100714.53;;;19.45;100.00
45763;BME280;37512;52.408;13.356;2023-07-20T09:06:52;100713.56;;;19.82;100.00
45763;BME280;37512;52.408;13.356;2023-07-20T09:10:53;100712.59;;;19.69;99.04
45763;BME280;37512;52.408;13.356;2023-07-20T09:14:57;100709.91;;;19.35;100.00
45763;BME280;37512;52.408;13.356;2023-07-20T09:18:59;100712.63;;;18.84;100.00
45763;BME280;37512;52.408;13.356;2023-07-20T09:23:04;100715.31;;;18.60;98.82
45763;BME280;37512;52.408;13.356;2023-07-20T09:27:07;100718.75;;;18.75;93.52
45763;BME280;37512;52.408;13.356;2023-07-20T09:31:17;100719.25;;;18.67;98.42
45763;BME280;37512;52.408;13.356;2023-07-20T09:35:21;100713.22;;;19.53;90.44
45763;BME280;37512;52.408;13.356;2023-07-20T09:39:26;100714.94;;;19.20;89.48
45763;BME280;37512;52.408;13.356;2023-07-20T09:43:30;100702.09;;;19.46;93.07
45763;BME280;37512;52.408;13.356;2023-07-20T09:47:35;100702.38;;;19.52;96.06
45763;BME280;37512;52.408;13.356;2023-07-20T09:51:38;100700.50;;;19.18;94.97
45763;BME280;37512;52.408;13.356;2023-07-20T09:55:41;100704.59;;;19.64;88.67
45763;BME280;37512;52.408;13.356;2023-07-20T09:59:45;100698.66;;;20.05;80.99
45763;BME280;37512;52.408;13.356;2023-07-20T10:03:47;100705.59;;;19.77;84.89
45763;BME280;37512;52.408;13.356;2023-07-20T10:07:50;100710.44;;;19.50;85.91
45763;BME280;37512;52.408;13.356;2023-07-20T10:12:15;100717.38;;;18.91;90.57
45763;BME280;37512;52.408;13.356;2023-07-20T10:16:50;100716.91;;;18.62;92.89
45763;BME280;37512;52.408;13.356;2023-07-20T10:20:54;100713.03;;;18.86;91.95
45763;BME280;37512;52.408;13.356;2023-07-20T10:24:59;100717.91;;;19.09;89.93
45763;BME280;37512;52.408;13.356;2023-07-20T10:29:00;100710.34;;;18.72;94.32
45763;BME280;37512;52.408;13.356;2023-07-20T10:33:06;100716.31;;;19.08;92.95
45763;BME280;37512;52.408;13.356;2023-07-20T10:37:07;100715.72;;;19.48;91.71
45763;BME280;37512;52.408;13.356;2023-07-20T10:41:22;100710.31;;;19.33;88.80
45763;BME280;37512;52.408;13.356;2023-07-20T10:45:57;100712.13;;;19.20;90.63
45763;BME280;37512;52.408;13.356;2023-07-20T10:49:58;100711.09;;;18.76;92.89
45763;BME280;37512;52.408;13.356;2023-07-20T10:54:02;100712.72;;;19.35;92.11
45763;BME280;37512;52.408;13.356;2023-07-20T11:02:09;100713.75;;;19.68;94.18
45763;BME280;37512;52.408;13.356;2023-07-20T11:10:25;100719.66;;;19.27;99.99
45763;BME280;37512;52.408;13.356;2023-07-20T11:14:26;100729.16;;;18.78;97.76
45763;BME280;37512;52.408;13.356;2023-07-20T11:18:29;100741.66;;;18.74;94.59
45763;BME280;37512;52.408;13.356;2023-07-20T11:22:33;100738.56;;;19.26;94.17
45763;BME280;37512;52.408;13.356;2023-07-20T11:30:43;100755.50;;;18.57;100.00
45763;BME280;37512;52.408;13.356;2023-07-20T11:34:47;100754.97;;;18.32;100.00
45763;BME280;37512;52.408;13.356;2023-07-20T11:38:48;100742.59;;;18.26;100.00
45763;BME280;37512;52.408;13.356;2023-07-20T11:42:50;100740.28;;;18.55;100.00
45763;BME280;37512;52.408;13.356;2023-07-20T11:47:11;100719.75;;;18.92;100.00
45763;BME280;37512;52.408;13.356;2023-07-20T11:51:16;100731.38;;;18.94;93.34
45763;BME280;37512;52.408;13.356;2023-07-20T11:55:18;100726.66;;;19.69;90.88
45763;BME280;37512;52.408;13.356;2023-07-20T11:59:21;100720.19;;;19.96;92.47
45763;BME280;37512;52.408;13.356;2023-07-20T12:03:22;100727.69;;;20.46;91.63
45763;BME280;37512;52.408;13.356;2023-07-20T12:07:27;100727.03;;;19.95;87.30
45763;BME280;37512;52.408;13.356;2023-07-20T12:11:35;100722.25;;;19.92;93.90
45763;BME280;37512;52.408;13.356;2023-07-20T12:15:40;100725.53;;;19.36;99.66
45763;BME280;37512;52.408;13.356;2023-07-20T12:19:41;100732.16;;;19.76;91.44
45763;BME280;37512;52.408;13.356;2023-07-20T12:23:43;100726.28;;;19.91;93.05
45763;BME280;37512;52.408;13.356;2023-07-20T12:27:44;100728.72;;;20.76;88.16
45763;BME280;37512;52.408;13.356;2023-07-20T12:31:46;100727.53;;;20.93;85.16
45763;BME280;37512;52.408;13.356;2023-07-20T12:35:49;100728.47;;;20.46;84.79
45763;BME280;37512;52.408;13.356;2023-07-20T12:39:51;100723.44;;;19.71;87.06
45763;BME280;37512;52.408;13.356;2023-07-20T12:43:52;100734.06;;;20.06;83.42
45763;BME280;37512;52.408;13.356;2023-07-20T12:47:54;100726.19;;;20.61;84.10
45763;BME280;37512;52.408;13.356;2023-07-20T12:51:56;100721.91;;;20.73;79.63
45763;BME280;37512;52.408;13.356;2023-07-20T12:55:58;100730.25;;;20.60;84.88
45763;BME280;37512;52.408;13.356;2023-07-20T13:00:01;100727.47;;;20.77;78.53
45763;BME280;37512;52.408;13.356;2023-07-20T13:04:03;100723.00;;;21.32;75.32
45763;BME280;37512;52.408;13.356;2023-07-20T13:08:07;100719.38;;;20.79;71.76
45763;BME280;37512;52.408;13.356;2023-07-20T13:12:12;100727.56;;;21.09;71.68
45763;BME280;37512;52.408;13.356;2023-07-20T13:16:14;100720.94;;;21.85;67.66
45763;BME280;37512;52.408;13.356;2023-07-20T13:20:16;100725.44;;;22.45;59.41
45763;BME280;37512;52.408;13.356;2023-07-20T13:24:17;100713.78;;;21.64;61.45
45763;BME280;37512;52.408;13.356;2023-07-20T13:28:19;100709.78;;;22.69;56.34
45763;BME280;37512;52.408;13.356;2023-07-20T13:32:22;100707.41;;;22.81;58.07
45763;BME280;37512;52.408;13.356;2023-07-20T13:36:25;100693.09;;;24.88;51.00
45763;BME280;37512;52.408;13.356;2023-07-20T13:40:27;100707.97;;;25.23;47.63
45763;BME280;37512;52.408;13.356;2023-07-20T13:44:28;100691.72;;;24.61;47.72
45763;BME280;37512;52.408;13.356;2023-07-20T13:48:31;100696.69;;;25.10;45.91
45763;BME280;37512;52.408;13.356;2023-07-20T13:52:37;100690.94;;;25.82;43.18
45763;BME280;37512;52.408;13.356;2023-07-20T13:56:42;100685.75;;;24.68;41.63
45763;BME280;37512;52.408;13.356;2023-07-20T14:00:43;100687.09;;;24.86;44.11
45763;BME280;37512;52.408;13.356;2023-07-20T14:04:45;100698.91;;;23.83;44.66
45763;BME280;37512;52.408;13.356;2023-07-20T14:08:46;100692.34;;;23.86;46.30
45763;BME280;37512;52.408;13.356;2023-07-20T14:12:49;100679.09;;;24.93;43.49
45763;BME280;37512;52.408;13.356;2023-07-20T14:16:51;100682.97;;;23.64;46.15
45763;BME280;37512;52.408;13.356;2023-07-20T14:20:53;100678.59;;;23.97;44.96
45763;BME280;37512;52.408;13.356;2023-07-20T14:24:55;100679.25;;;25.21;43.17
45763;BME280;37512;52.408;13.356;2023-07-20T14:28:59;100675.88;;;24.51;43.35
45763;BME280;37512;52.408;13.356;2023-07-20T14:33:02;100674.38;;;24.24;41.03
45763;BME280;37512;52.408;13.356;2023-07-20T14:37:04;100674.72;;;24.70;38.95
45763;BME280;37512;52.408;13.356;2023-07-20T14:41:06;100681.78;;;24.43;38.84
45763;BME280;37512;52.408;13.356;2023-07-20T14:45:08;100666.97;;;23.70;40.32
45763;BME280;37512;52.408;13.356;2023-07-20T14:49:10;100674.13;;;24.31;39.49
45763;BME280;37512;52.408;13.356;2023-07-20T14:53:13;100678.56;;;23.50;39.69
45763;BME280;37512;52.408;13.356;2023-07-20T14:57:19;100664.91;;;23.83;39.78
45763;BME280;37512;52.408;13.356;2023-07-20T15:01:23;100659.31;;;23.92;38.60
45763;BME280;37512;52.408;13.356;2023-07-20T15:05:25;100669.41;;;22.94;40.70
45763;BME280;37512;52.408;13.356;2023-07-20T15:09:28;100662.41;;;23.85;38.58
45763;BME280;37512;52.408;13.356;2023-07-20T15:13:30;100653.03;;;24.86;38.13
45763;BME280;37512;52.408;13.356;2023-07-20T15:17:32;100663.94;;;26.14;36.66
45763;BME280;37512;52.408;13.356;2023-07-20T15:21:33;100661.72;;;24.16;39.00
45763;BME280;37512;52.408;13.356;2023-07-20T15:25:36;100665.09;;;22.90;40.82
45763;BME280;37512;52.408;13.356;2023-07-20T15:29:37;100665.56;;;23.14;41.74
45763;BME280;37512;52.408;13.356;2023-07-20T15:33:39;100668.03;;;23.37;40.40
45763;BME280;37512;52.408;13.356;2023-07-20T15:37:40;100673.97;;;23.17;41.89
45763;BME280;37512;52.408;13.356;2023-07-20T15:41:42;100665.25;;;22.99;41.39
45763;BME280;37512;52.408;13.356;2023-07-20T15:45:46;100671.03;;;23.69;41.49
45763;BME280;37512;52.408;13.356;2023-07-20T15:49:48;100682.72;;;23.71;40.51
45763;BME280;37512;52.408;13.356;2023-07-20T15:53:49;100675.97;;;22.79;41.88
45763;BME280;37512;52.408;13.356;2023-07-20T15:57:51;100672.94;;;22.44;43.03
45763;BME280;37512;52.408;13.356;2023-07-20T16:01:53;100685.34;;;22.33;42.58
45763;BME280;37512;52.408;13.356;2023-07-20T16:05:55;100664.84;;;22.71;42.56
45763;BME280;37512;52.408;13.356;2023-07-20T16:09:57;100666.69;;;24.25;40.78
45763;BME280;37512;52.408;13.356;2023-07-20T16:14:02;100664.25;;;23.79;40.65
45763;BME280;37512;52.408;13.356;2023-07-20T16:18:04;100661.84;;;24.12;39.15
45763;BME280;37512;52.408;13.356;2023-07-20T16:22:06;100654.53;;;24.46;38.89
45763;BME280;37512;52.408;13.356;2023-07-20T16:26:08;100664.25;;;24.36;36.55
45763;BME280;37512;52.408;13.356;2023-07-20T16:30:09;100672.66;;;24.05;36.76
45763;BME280;37512;52.408;13.356;2023-07-20T16:34:11;100672.47;;;24.21;38.38
45763;BME280;37512;52.408;13.356;2023-07-20T16:38:13;100677.56;;;23.05;40.51
45763;BME280;37512;52.408;13.356;2023-07-20T16:42:15;100670.19;;;22.11;43.77
45763;BME280;37512;52.408;13.356;2023-07-20T16:46:17;100667.78;;;23.57;41.85
45763;BME280;37512;52.408;13.356;2023-07-20T16:50:21;100678.09;;;22.32;43.11
45763;BME280;37512;52.408;13.356;2023-07-20T16:54:23;100676.94;;;22.01;45.64
45763;BME280;37512;52.408;13.356;2023-07-20T16:58:26;100674.69;;;21.79;45.29
45763;BME280;37512;52.408;13.356;2023-07-20T17:02:27;100673.47;;;21.47;46.67
45763;BME280;37512;52.408;13.356;2023-07-20T17:06:29;100670.09;;;21.36;47.13
45763;BME280;37512;52.408;13.356;2023-07-20T17:10:31;100673.03;;;21.49;47.61
45763;BME280;37512;52.408;13.356;2023-07-20T17:14:33;100674.53;;;21.37;47.29
45763;BME280;37512;52.408;13.356;2023-07-20T17:18:35;100675.56;;;21.92;47.34
45763;BME280;37512;52.408;13.356;2023-07-20T17:22:37;100685.28;;;23.05;44.03
45763;BME280;37512;52.408;13.356;2023-07-20T17:26:39;100681.41;;;23.37;42.51
45763;BME280;37512;52.408;13.356;2023-07-20T17:30:44;100686.06;;;23.31;42.45
45763;BME280;37512;52.408;13.356;2023-07-20T17:34:46;100699.19;;;23.63;43.34
45763;BME280;37512;52.408;13.356;2023-07-20T17:38:47;100690.25;;;23.39;43.68
45763;BME280;37512;52.408;13.356;2023-07-20T17:42:52;100696.84;;;23.36;43.90
45763;BME280;37512;52.408;13.356;2023-07-20T17:46:57;100698.19;;;23.06;45.25
45763;BME280;37512;52.408;13.356;2023-07-20T17:51:01;100696.16;;;22.22;46.53
45763;BME280;37512;52.408;13.356;2023-07-20T17:55:03;100697.28;;;21.79;49.32
45763;BME280;37512;52.408;13.356;2023-07-20T17:59:05;100689.47;;;22.00;48.56
45763;BME280;37512;52.408;13.356;2023-07-20T18:03:06;100691.44;;;20.84;52.40
45763;BME280;37512;52.408;13.356;2023-07-20T18:07:08;100684.53;;;21.42;53.05
45763;BME280;37512;52.408;13.356;2023-07-20T18:11:09;100692.47;;;21.10;52.28
45763;BME280;37512;52.408;13.356;2023-07-20T18:15:11;100697.69;;;20.76;54.09
45763;BME280;37512;52.408;13.356;2023-07-20T18:19:13;100690.44;;;20.75;52.92
45763;BME280;37512;52.408;13.356;2023-07-20T18:23:14;100688.06;;;20.53;51.56
45763;BME280;37512;52.408;13.356;2023-07-20T18:27:16;100702.50;;;20.15;54.13
45763;BME280;37512;52.408;13.356;2023-07-20T18:31:18;100698.34;;;20.00;56.00
45763;BME280;37512;52.408;13.356;2023-07-20T18:35:20;100702.00;;;20.20;56.66
45763;BME280;37512;52.408;13.356;2023-07-20T18:39:22;100713.63;;;19.79;58.11
45763;BME280;37512;52.408;13.356;2023-07-20T18:43:23;100703.09;;;19.83;57.35
45763;BME280;37512;52.408;13.356;2023-07-20T18:47:25;100709.50;;;19.83;56.78
45763;BME280;37512;52.408;13.356;2023-07-20T18:51:26;100712.97;;;19.71;60.18
45763;BME280;37512;52.408;13.356;2023-07-20T18:55:28;100721.78;;;19.46;61.20
45763;BME280;37512;52.408;13.356;2023-07-20T18:59:33;100715.56;;;19.31;61.49
45763;BME280;37512;52.408;13.356;2023-07-20T19:03:35;100712.38;;;19.29;63.41
45763;BME280;37512;52.408;13.356;2023-07-20T19:07:36;100721.34;;;19.48;62.82
45763;BME280;37512;52.408;13.356;2023-07-20T19:11:38;100718.06;;;19.53;62.52
45763;BME280;37512;52.408;13.356;2023-07-20T19:15:49;100718.44;;;19.28;64.21
45763;BME280;37512;52.408;13.356;2023-07-20T19:19:53;100729.06;;;19.16;66.14
45763;BME280;37512;52.408;13.356;2023-07-20T19:23:54;100735.84;;;18.88;68.64
45763;BME280;37512;52.408;13.356;2023-07-20T19:27:56;100738.31;;;18.86;68.88
45763;BME280;37512;52.408;13.356;2023-07-20T19:31:58;100736.06;;;19.05;69.36
45763;BME280;37512;52.408;13.356;2023-07-20T19:36:02;100740.38;;;18.82;69.65
45763;BME280;37512;52.408;13.356;2023-07-20T19:40:04;100746.38;;;18.84;69.62
45763;BME280;37512;52.408;13.356;2023-07-20T19:44:06;100759.50;;;18.94;69.75
45763;BME280;37512;52.408;13.356;2023-07-20T19:48:10;100751.41;;;19.00;70.45
45763;BME280;37512;52.408;13.356;2023-07-20T19:52:13;100751.91;;;18.57;73.49
45763;BME280;37512;52.408;13.356;2023-07-20T19:56:16;100755.28;;;18.75;73.51
45763;BME280;37512;52.408;13.356;2023-07-20T20:00:19;100749.13;;;18.53;76.29
45763;BME280;37512;52.408;13.356;2023-07-20T20:04:41;100757.25;;;18.44;76.03
45763;BME280;37512;52.408;13.356;2023-07-20T20:08:46;100757.78;;;18.32;76.01
45763;BME280;37512;52.408;13.356;2023-07-20T20:12:47;100762.47;;;18.46;76.27
45763;BME280;37512;52.408;13.356;2023-07-20T20:16:50;100766.91;;;18.43;77.33
45763;BME280;37512;52.408;13.356;2023-07-20T20:20:54;100766.53;;;18.41;76.16
45763;BME280;37512;52.408;13.356;2023-07-20T20:24:56;100768.66;;;18.30;76.10
45763;BME280;37512;52.408;13.356;2023-07-20T20:28:58;100767.81;;;18.33;77.98
45763;BME280;37512;52.408;13.356;2023-07-20T20:32:59;100775.03;;;18.34;78.05
45763;BME280;37512;52.408;13.356;2023-07-20T20:37:01;100770.16;;;18.38;79.89
45763;BME280;37512;52.408;13.356;2023-07-20T20:41:05;100773.50;;;18.26;80.33
45763;BME280;37512;52.408;13.356;2023-07-20T20:45:07;100774.72;;;18.25;80.75
45763;BME280;37512;52.408;13.356;2023-07-20T20:49:12;100782.78;;;18.19;82.36
45763;BME280;37512;52.408;13.356;2023-07-20T20:53:14;100783.16;;;18.25;81.19
45763;BME280;37512;52.408;13.356;2023-07-20T20:57:16;100772.56;;;17.94;84.50
45763;BME280;37512;52.408;13.356;2023-07-20T21:01:18;100777.53;;;17.76;84.24
45763;BME280;37512;52.408;13.356;2023-07-20T21:05:20;100766.41;;;17.58;88.25